Time;durP1;ratioP1;P1;durP2;ratioP2;P2;SDS_P1;SDS_P2;PMS_P1;PMS_P2;Temp;Humidity;BMP_temperature;BMP_pressure;BME280_temperature;BME280_humidity;BME280_pressure;Samples;Min_cycle;Max_cycle;Signal;HPM_P1;HPM_P2
2023/05/01 00:03:21;;;;;;;21.60;10.50;;;;;;;2.13;75.05;99588.54;271750;1275;22882;-87
2023/05/01 00:09:38;;;;;;;18.00;8.80;;;;;;;2.03;75.36;99587.48;272313;1274;22493;-86
2023/05/01 00:23:22;;;;;;;27.80;10.70;;;;;;;1.93;76.26;99589.36;273039;1270;22331;-86
2023/05/01 00:29:27;;;;;;;22.90;8.70;;;;;;;1.86;76.36;99585.91;272504;1269;23067;-88
2023/05/01 00:43:14;;;;;;;25.90;11.80;;;;;;;1.61;76.97;99586.02;273473;1269;22174;-88
2023/05/01 00:49:34;;;;;;;26.20;11.20;;;;;;;1.51;77.05;99585.20;273098;1269;22214;-87
2023/05/01 00:56:01;;;;;;;21.90;10.80;;;;;;;1.43;77.85;99586.71;273751;1272;23081;-87
2023/05/01 01:17:34;;;;;;;24.10;10.40;;;;;;;1.40;79.49;99591.24;265351;1269;10137780;-86
2023/05/01 01:24:37;;;;;;;23.50;10.90;;;;;;;1.33;79.65;99590.10;272281;1277;22278;-86
2023/05/01 01:39:21;;;;;;;25.50;11.30;;;;;;;1.15;79.19;99588.62;270946;1280;22548;-85
2023/05/01 01:46:12;;;;;;;25.20;11.90;;;;;;;1.00;79.68;99587.07;270599;1280;22524;-87
2023/05/01 01:52:40;;;;;;;20.40;10.00;;;;;;;0.94;80.20;99582.77;270505;1267;22301;-87
2023/05/01 01:59:20;;;;;;;27.70;10.70;;;;;;;0.87;80.65;99575.02;270755;1266;22646;-87
2023/05/01 02:36:07;;;;;;;23.60;9.90;;;;;;;0.55;82.31;99559.31;272717;1263;23609;-86
2023/05/01 02:50:55;;;;;;;25.00;12.30;;;;;;;0.45;82.23;99554.59;271279;1262;23267;-87
2023/05/01 02:57:25;;;;;;;26.30;12.50;;;;;;;0.37;82.59;99550.52;269938;1275;22546;-86
2023/05/01 03:11:05;;;;;;;28.60;14.70;;;;;;;0.20;82.93;99541.65;270423;1274;22510;-88
2023/05/01 03:17:12;;;;;;;26.50;13.60;;;;;;;0.15;83.24;99536.45;270664;1262;22230;-87
2023/05/01 03:24:05;;;;;;;24.30;12.00;;;;;;;0.14;83.53;99535.34;270740;1275;22553;-86
2023/05/01 03:31:00;;;;;;;22.90;11.70;;;;;;;0.17;84.07;99531.51;270283;1273;22555;-86
2023/05/01 03:38:39;;;;;;;23.50;11.20;;;;;;;0.17;84.18;99528.46;270450;1273;22574;-86
2023/05/01 03:53:29;;;;;;;20.80;10.30;;;;;;;0.15;84.79;99518.43;271753;1271;22903;-86
2023/05/01 04:07:35;;;;;;;25.30;11.50;;;;;;;0.39;85.98;99520.33;273370;1269;22490;-86
2023/05/01 04:13:46;;;;;;;24.20;11.00;;;;;;;0.57;86.02;99525.50;271800;1270;22573;-85
2023/05/01 04:20:40;;;;;;;24.50;11.20;;;;;;;0.73;86.44;99527.52;271768;1269;23242;-85
2023/05/01 04:35:29;;;;;;;31.30;14.50;;;;;;;1.11;86.74;99529.96;271471;1269;22848;-86
2023/05/01 05:19:25;;;;;;;22.20;12.70;;;;;;;3.69;88.96;99508.02;271220;1269;22539;-88
2023/05/01 05:34:12;;;;;;;18.70;10.20;;;;;;;4.61;88.28;99507.48;270400;1271;22601;-89
2023/05/01 05:40:39;;;;;;;17.20;9.60;;;;;;;5.02;86.89;99503.52;270550;1272;22560;-89
2023/05/01 05:47:02;;;;;;;21.20;8.70;;;;;;;5.39;86.04;99508.60;273040;1269;22367;-89
2023/05/01 06:01:01;;;;;;;14.70;8.20;;;;;;;6.27;84.56;99505.66;271931;1275;22287;-86
2023/05/01 06:07:30;;;;;;;17.80;9.20;;;;;;;6.72;84.17;99500.83;272298;1273;22368;-87
2023/05/01 06:13:32;;;;;;;16.90;7.80;;;;;;;7.29;83.38;99499.43;272456;1272;22334;-87
2023/05/01 06:35:33;;;;;;;13.20;5.80;;;;;;;9.26;79.33;99496.38;273562;1269;22704;-86
2023/05/01 06:41:37;;;;;;;11.50;5.00;;;;;;;9.64;78.42;99495.56;272848;1273;22233;-88
2023/05/01 06:48:01;;;;;;;10.80;4.90;;;;;;;9.97;76.94;99492.31;273657;1272;22403;-88
2023/05/01 07:03:03;;;;;;;7.60;2.70;;;;;;;10.63;72.02;99482.89;271552;1274;22567;-87
2023/05/01 07:09:29;;;;;;;5.80;2.30;;;;;;;10.78;68.38;99483.08;272310;1270;22520;-87
2023/05/01 07:30:36;;;;;;;3.40;1.50;;;;;;;11.32;59.36;99481.72;273358;1269;22380;-86
2023/05/01 07:36:43;;;;;;;8.90;2.50;;;;;;;11.54;58.17;99482.85;273625;1269;22362;-85
2023/05/01 07:51:09;;;;;;;7.50;2.30;;;;;;;12.32;54.76;99480.30;271653;1262;22192;-88
2023/05/01 07:58:22;;;;;;;3.00;1.60;;;;;;;12.95;54.13;99478.15;273457;1270;22258;-88
2023/05/01 08:12:58;;;;;;;6.10;2.00;;;;;;;13.59;52.08;99470.20;270965;1281;22288;-89
2023/05/01 08:42:13;;;;;;;5.50;1.80;;;;;;;14.04;47.29;99466.85;273060;1275;23426;-89
2023/05/01 08:48:42;;;;;;;9.10;3.00;;;;;;;14.16;46.92;99463.44;273109;1274;22224;-88
2023/05/01 09:02:51;;;;;;;5.30;2.30;;;;;;;14.68;46.77;99450.39;273377;1273;22725;-87
2023/05/01 09:09:17;;;;;;;4.70;2.10;;;;;;;14.96;46.59;99440.02;273722;1275;23468;-88
2023/05/01 09:15:20;;;;;;;6.80;2.20;;;;;;;15.31;45.78;99429.95;272254;1270;22163;-88
2023/05/01 09:21:31;;;;;;;8.90;2.80;;;;;;;15.74;45.16;99428.08;272082;1272;23405;-89
2023/05/01 09:28:18;;;;;;;4.40;2.30;;;;;;;16.23;45.19;99422.60;270450;1271;23880;-89
2023/05/01 10:05:09;;;;;;;5.90;1.90;;;;;;;19.75;42.58;99384.21;272542;1269;22646;-88
2023/05/01 10:49:09;;;;;;;4.10;2.00;;;;;;;20.10;36.98;99333.00;271708;1269;22266;-88
2023/05/01 11:02:48;;;;;;;4.90;2.00;;;;;;;21.00;36.33;99317.14;272594;1269;22234;-87
2023/05/01 11:08:51;;;;;;;8.30;1.70;;;;;;;21.41;36.14;99318.66;273516;1271;22893;-88
2023/05/01 11:14:52;;;;;;;4.90;1.90;;;;;;;21.59;35.27;99313.80;273415;1275;22185;-88
2023/05/01 11:21:49;;;;;;;6.80;2.00;;;;;;;21.64;34.89;99310.08;273307;1273;22374;-88
2023/05/01 11:35:27;;;;;;;3.50;1.80;;;;;;;21.84;33.78;99288.52;271707;1269;23503;-89
2023/05/01 11:49:28;;;;;;;4.20;2.30;;;;;;;22.42;33.83;99273.32;271705;1269;22625;-87
2023/05/01 12:03:48;;;;;;;6.40;3.10;;;;;;;22.42;33.08;99265.97;272055;1266;22532;-86
2023/05/01 12:41:12;;;;;;;7.50;4.60;;;;;;;20.83;32.18;99213.55;271911;1276;23304;-89
2023/05/01 12:47:16;;;;;;;;;;;;;;;20.84;32.36;99203.61;272087;1277;22448;-86
2023/05/01 12:53:21;;;;;;;6.10;3.30;;;;;;;20.85;32.67;99194.21;270760;1276;22315;-87
2023/05/01 12:59:33;;;;;;;7.10;2.80;;;;;;;20.92;32.76;99192.84;269569;1270;22528;-87
2023/05/01 13:22:22;;;;;;;4.40;1.80;;;;;;;20.74;32.56;99169.40;263342;1270;22520;-86
2023/05/01 13:28:25;;;;;;;5.30;2.20;;;;;;;20.74;32.36;99159.13;272795;1269;23444;-87
2023/05/01 13:34:29;;;;;;;4.80;2.20;;;;;;;20.66;32.40;99150.77;272538;1270;22331;-86
2023/05/01 13:40:33;;;;;;;4.00;2.40;;;;;;;20.68;32.23;99141.18;272121;1270;22193;-88
2023/05/01 13:47:05;;;;;;;3.70;2.40;;;;;;;20.72;32.23;99142.73;272539;1270;22602;-86
2023/05/01 13:53:07;;;;;;;7.80;3.00;;;;;;;20.64;32.11;99139.39;271248;1269;22344;-87
2023/05/01 13:59:45;;;;;;;3.70;2.10;;;;;;;20.59;32.00;99131.89;271200;1269;22213;-86
2023/05/01 14:06:55;;;;;;;3.50;2.00;;;;;;;20.48;31.67;99127.65;272699;1269;22171;-87
2023/05/01 14:13:01;;;;;;;6.80;2.40;;;;;;;20.32;31.67;99113.88;272494;1269;22320;-87
2023/05/01 14:19:04;;;;;;;4.50;2.00;;;;;;;20.32;31.53;99108.40;272886;1269;22465;-88
2023/05/01 14:25:16;;;;;;;4.40;2.00;;;;;;;20.29;31.16;99100.77;271412;1260;22579;-87
2023/05/01 14:31:27;;;;;;;4.90;2.30;;;;;;;20.01;30.59;99090.91;272416;1269;22308;-88
2023/05/01 14:44:58;;;;;;;3.80;2.00;;;;;;;19.50;30.91;99069.92;272573;1269;22266;-87
2023/05/01 14:51:52;;;;;;;4.00;2.00;;;;;;;19.56;30.87;99068.99;271847;1269;22524;-85
2023/05/01 14:58:57;;;;;;;3.20;2.30;;;;;;;19.52;30.48;99061.23;272684;1270;22171;-86
2023/05/01 15:05:28;;;;;;;5.10;2.30;;;;;;;19.47;30.64;99057.95;272697;1270;23528;-86
2023/05/01 15:11:30;;;;;;;5.80;3.10;;;;;;;19.36;30.47;99057.41;273025;1260;22403;-87
2023/05/01 15:25:13;;;;;;;3.50;1.80;;;;;;;18.93;30.59;99045.58;272255;1257;22730;-84
2023/05/01 15:31:57;;;;;;;2.60;1.80;;;;;;;18.76;30.84;99040.88;271853;1269;22301;-86
2023/05/01 15:38:01;;;;;;;5.50;2.50;;;;;;;18.54;30.95;99027.95;272858;1269;22415;-86
2023/05/01 15:44:04;;;;;;;5.00;2.20;;;;;;;18.38;31.04;99017.39;271819;1269;22334;-86
2023/05/01 15:50:09;;;;;;;4.50;2.40;;;;;;;18.27;31.36;99021.73;272594;1270;22421;-86
2023/05/01 15:57:09;;;;;;;6.30;2.00;;;;;;;18.07;31.82;99025.52;271893;1269;22193;-87
2023/05/01 16:05:17;;;;;;;4.00;2.00;;;;;;;17.83;32.41;99018.98;270980;1272;22531;-85
2023/05/01 16:11:55;;;;;;;6.00;2.70;;;;;;;17.70;32.77;99012.41;270678;1278;22355;-87
2023/05/01 16:18:28;;;;;;;6.70;3.00;;;;;;;17.72;33.02;99010.40;270174;1272;25374;-86
2023/05/01 16:24:34;;;;;;;5.40;2.30;;;;;;;17.77;33.46;99006.13;271944;1272;22225;-86
2023/05/01 16:30:59;;;;;;;4.30;2.30;;;;;;;17.78;33.90;99001.36;271846;1269;22867;-86
2023/05/01 16:37:02;;;;;;;9.60;3.30;;;;;;;17.77;34.14;98998.99;272990;1263;22366;-87
2023/05/01 16:43:06;;;;;;;4.60;2.10;;;;;;;17.70;34.42;98998.02;273079;1270;22312;-86
2023/05/01 16:49:14;;;;;;;3.70;2.40;;;;;;;17.62;34.91;98994.61;272515;1269;22447;-86
2023/05/01 16:55:27;;;;;;;4.60;2.50;;;;;;;17.51;35.15;98993.98;273137;1269;22392;-86
2023/05/01 17:02:05;;;;;;;;;;;;;;;17.40;35.54;98993.44;272853;1269;22609;-86
2023/05/01 17:08:10;;;;;;;5.00;2.80;;;;;;;17.26;35.91;98992.63;272531;1269;23190;-88
2023/05/01 17:14:17;;;;;;;5.60;2.80;;;;;;;17.15;36.31;98990.59;273383;1271;22490;-88
2023/05/01 17:28:35;;;;;;;6.20;3.30;;;;;;;16.77;37.31;98980.09;265215;1269;10002584;-87
2023/05/01 17:34:37;;;;;;;9.20;4.00;;;;;;;16.57;37.71;98979.88;272731;1269;22352;-86
2023/05/01 17:40:44;;;;;;;9.10;4.50;;;;;;;16.34;38.09;98976.68;273454;1270;23187;-87
2023/05/01 17:55:05;;;;;;;8.00;4.50;;;;;;;15.83;38.98;98974.41;272752;1269;22196;-86
2023/05/01 18:01:09;;;;;;;9.90;5.20;;;;;;;15.54;39.46;98974.70;273349;1268;22567;-86
2023/05/01 18:15:06;;;;;;;17.30;7.00;;;;;;;14.96;40.65;98972.43;272862;1253;22283;-86
2023/05/01 18:21:08;;;;;;;11.60;4.70;;;;;;;14.64;41.01;98970.84;272857;1269;22366;-86
2023/05/01 18:27:11;;;;;;;10.60;4.70;;;;;;;14.34;41.75;98973.73;272988;1269;22337;-86
2023/05/01 18:47:49;;;;;;;11.00;5.20;;;;;;;13.46;43.07;98976.52;271808;1269;22260;-86
2023/05/01 18:54:40;;;;;;;11.70;5.70;;;;;;;13.24;43.48;98976.52;272561;1269;22187;-86
2023/05/01 19:01:31;;;;;;;14.00;5.80;;;;;;;13.06;44.69;98981.55;273020;1259;22203;-85
2023/05/01 19:08:03;;;;;;;9.10;4.70;;;;;;;12.91;46.39;98985.27;272982;1268;22272;-86
2023/05/01 19:14:05;;;;;;;14.90;7.50;;;;;;;12.75;46.31;98989.02;272439;1269;23609;-87
2023/05/01 19:20:57;;;;;;;11.60;6.20;;;;;;;12.66;46.23;98990.87;272511;1269;22272;-86
2023/05/01 19:26:59;;;;;;;22.10;12.30;;;;;;;12.64;46.58;98987.88;272319;1269;22646;-87
2023/05/01 19:33:05;;;;;;;22.00;14.30;;;;;;;12.63;46.78;98991.65;272672;1269;22295;-86
2023/05/01 19:39:09;;;;;;;31.70;20.40;;;;;;;12.53;48.18;98990.98;272781;1269;22257;-86
2023/05/01 19:45:32;;;;;;;29.20;17.00;;;;;;;12.37;49.69;98983.79;272632;1268;22431;-86
2023/05/01 19:51:33;;;;;;;15.60;9.30;;;;;;;12.21;50.82;98984.28;273030;1269;23567;-86
2023/05/01 19:57:46;;;;;;;16.20;8.90;;;;;;;11.84;50.32;98994.90;272668;1269;23370;-86
2023/05/01 20:04:12;;;;;;;13.00;8.10;;;;;;;11.56;51.28;98993.20;272843;1269;22309;-86
2023/05/01 20:10:21;;;;;;;17.60;8.70;;;;;;;11.37;52.46;98992.58;273445;1271;22350;-86
2023/05/01 20:16:49;;;;;;;61.40;23.30;;;;;;;11.09;52.86;98987.97;272439;1269;22271;-86
2023/05/01 20:23:22;;;;;;;197.60;66.50;;;;;;;10.80;53.77;98983.86;272633;1268;23668;-85
2023/05/01 20:29:25;;;;;;;253.90;99.30;;;;;;;10.57;54.51;98983.38;272584;1269;22328;-86
2023/05/01 20:35:27;;;;;;;174.90;76.00;;;;;;;10.34;55.69;98978.59;272430;1263;22374;-87
2023/05/01 20:42:18;;;;;;;101.70;52.90;;;;;;;10.09;56.18;98983.11;272564;1269;22418;-86
2023/05/01 20:48:53;;;;;;;78.40;41.90;;;;;;;9.86;56.60;98986.92;273084;1269;23412;-86
2023/05/01 20:54:54;;;;;;;79.70;38.60;;;;;;;9.66;57.22;98989.61;271981;1264;23204;-86
2023/05/01 21:08:19;;;;;;;59.00;28.30;;;;;;;9.44;59.55;98995.98;272973;1269;22317;-86
2023/05/01 21:14:53;;;;;;;55.20;25.50;;;;;;;9.28;60.03;99000.19;273349;1270;22338;-85
2023/05/01 21:21:47;;;;;;;67.40;29.00;;;;;;;9.14;61.20;99005.04;272796;1269;23398;-86
2023/05/01 21:27:48;;;;;;;63.40;29.30;;;;;;;8.93;61.35;99010.06;273171;1269;22743;-86
2023/05/01 21:34:18;;;;;;;67.40;29.20;;;;;;;8.82;62.32;99016.41;272973;1269;23018;-85
2023/05/01 21:40:20;;;;;;;57.10;25.10;;;;;;;8.70;63.09;99024.21;272538;1269;22992;-86
2023/05/01 21:46:21;;;;;;;60.00;28.00;;;;;;;8.52;63.58;99029.79;272124;1269;22463;-86
2023/05/01 21:52:23;;;;;;;49.00;22.30;;;;;;;8.25;63.87;99032.65;271263;1269;23730;-85
2023/05/01 21:58:26;;;;;;;46.00;21.10;;;;;;;8.08;64.95;99039.76;272458;1269;22373;-85
2023/05/01 22:04:28;;;;;;;32.80;16.30;;;;;;;7.91;65.20;99042.52;271634;1262;23859;-86
2023/05/01 22:10:33;;;;;;;34.90;16.20;;;;;;;7.84;66.61;99049.96;272461;1269;22233;-85
2023/05/01 22:16:34;;;;;;;34.00;15.90;;;;;;;7.84;67.45;99055.75;272219;1269;22345;-85
2023/05/01 22:22:38;;;;;;;31.60;16.30;;;;;;;7.76;67.05;99064.27;272654;1269;22160;-86
2023/05/01 22:35:50;;;;;;;26.50;14.40;;;;;;;7.39;68.38;99059.80;272326;1269;22372;-86
2023/05/01 22:41:52;;;;;;;32.30;17.00;;;;;;;7.34;69.33;99060.39;272570;1257;22445;-87
2023/05/01 22:47:55;;;;;;;31.80;16.50;;;;;;;7.20;69.22;99060.80;271340;1269;22339;-86
2023/05/01 22:53:58;;;;;;;27.50;14.60;;;;;;;7.06;69.66;99064.57;272638;1269;22504;-86
2023/05/01 23:00:52;;;;;;;26.60;12.70;;;;;;;6.87;69.87;99062.66;272282;1261;23827;-85
2023/05/01 23:14:18;;;;;;;25.30;14.10;;;;;;;6.57;71.02;99062.95;271617;1273;22407;-85
2023/05/01 23:20:23;;;;;;;28.10;15.60;;;;;;;6.46;72.05;99065.27;271571;1275;22673;-86
2023/05/01 23:26:49;;;;;;;31.20;16.80;;;;;;;6.39;72.30;99067.02;272272;1272;22274;-85
2023/05/01 23:40:54;;;;;;;26.90;15.30;;;;;;;6.13;73.29;99064.31;272007;1276;23432;-86
2023/05/01 23:47:20;;;;;;;29.00;13.60;;;;;;;6.00;73.91;99069.13;271956;1265;23101;-85
2023/05/01 23:53:21;;;;;;;26.50;13.80;;;;;;;6.01;74.55;99070.38;272335;1274;22303;-85
